Kathleen — WDD4373 — position and weather

sailwx.info

Track history (hours):
 
Tides and Currents Weather Stations Pressure Air Temp Water Temp Dewpoint Dewpoint Depression Visibility Wind Speed Wind Dir Waves Ship Positions

Kathleen

Owner: GMT LLC, Mandeville, LA. More information available from US FCC via Universal Licensing System and Coast Guard Vessel Documentation Center.

Last reported at 2018-Jun-25 16:00 UTC. Time now 2018-Jun-25 15:57 UTC.
Position N 40°41' W 074°05'.

Length 23 m; draft 3 m.

Type: Tow > 200 m length. MMSI: 367143860.

Date/timePositionNaut miles runAvg speedWind from/ knotsBaromVisibWave heightAir tempDewpointWater temp
2018-Jun-25 16:00N 40°41' W 074°05'0 0.0
2018-Jun-25 15:30N 40°41' W 074°05'0 0.0
2018-Jun-25 15:00N 40°41' W 074°05'0 0.0
2018-Jun-25 14:30N 40°41' W 074°05'0 0.0
2018-Jun-25 14:00N 40°41' W 074°05'0 0.0
2018-Jun-25 13:30N 40°41' W 074°05'0 0.0
2018-Jun-25 13:00N 40°41' W 074°05'0 0.0
2018-Jun-25 12:30N 40°41' W 074°05'0 0.0
2018-Jun-25 12:00N 40°41' W 074°05'0 0.0
2018-Jun-25 11:30N 40°41' W 074°05'0 0.0
2018-Jun-25 11:00N 40°41' W 074°05'0 0.0
2018-Jun-25 10:30N 40°41' W 074°05'0 0.0
2018-Jun-25 10:00N 40°41' W 074°05'0 0.0
2018-Jun-25 09:30N 40°41' W 074°05'0 0.0
2018-Jun-25 09:00N 40°41' W 074°05'0 0.0
2018-Jun-25 08:30N 40°41' W 074°05'0 0.0
2018-Jun-25 08:00N 40°41' W 074°05'0 0.0
2018-Jun-25 07:30N 40°41' W 074°05'0 0.0
2018-Jun-25 07:00N 40°41' W 074°05'0 0.0
2018-Jun-25 06:30N 40°41' W 074°05'0 0.0
2018-Jun-25 06:00N 40°41' W 074°05'0 0.0
2018-Jun-25 05:30N 40°41' W 074°05'0 0.0
2018-Jun-25 05:00N 40°41' W 074°05'0 0.0
2018-Jun-25 04:30N 40°41' W 074°05'0 0.0
2018-Jun-25 04:00N 40°41' W 074°05'3 5.9
2018-Jun-25 03:30N 40°40' W 074°01'0 1.0
2018-Jun-25 03:00N 40°40' W 074°01'1 1.8
2018-Jun-25 02:30N 40°40' W 074°01'4 8.4
2018-Jun-25 02:00N 40°44' W 073°58'4 1.6
2018-Jun-24 23:35N 40°47' W 073°55'1 9.1
2018-Jun-24 23:29N 40°47' W 073°56'4 8.7
2018-Jun-24 23:00N 40°43' W 073°58'4 7.2
2018-Jun-24 22:30N 40°40' W 074°01'3 5.1
2018-Jun-24 22:00N 40°41' W 074°04'1 1.5
2018-Jun-24 21:30N 40°41' W 074°05'0 0.0
2018-Jun-24 21:00N 40°41' W 074°05'0 0.0
2018-Jun-24 20:30N 40°41' W 074°05'0 0.0
2018-Jun-24 20:00N 40°41' W 074°05'0 0.0
2018-Jun-24 19:30N 40°41' W 074°05'0 0.0
2018-Jun-24 19:00N 40°41' W 074°05'0 0.0
2018-Jun-24 18:30N 40°41' W 074°05'0 0.0
2018-Jun-24 18:00N 40°41' W 074°05'0 0.0
2018-Jun-24 17:30N 40°41' W 074°05'0 0.0
2018-Jun-24 17:00N 40°41' W 074°05'0 0.0
2018-Jun-24 16:30N 40°41' W 074°05'0 0.0
2018-Jun-24 16:00N 40°41' W 074°05'0 0.0
2018-Jun-24 15:30N 40°41' W 074°05'0 0.0
2018-Jun-24 15:00N 40°41' W 074°05'0 0.0
2018-Jun-24 14:30N 40°41' W 074°05'0 0.0
2018-Jun-24 14:00N 40°41' W 074°05'0 0.0
2018-Jun-24 13:30N 40°41' W 074°05'0 0.0
2018-Jun-24 13:00N 40°41' W 074°05'2 3.8
2018-Jun-24 12:30N 40°39' W 074°05'2 3.1
2018-Jun-24 12:00N 40°39' W 074°07'0 0.0
2018-Jun-24 11:30N 40°39' W 074°07'0 0.0
2018-Jun-24 11:00N 40°39' W 074°07'0 0.0
2018-Jun-24 10:30N 40°39' W 074°07'0 0.0
2018-Jun-24 10:00N 40°39' W 074°07'0 0.0
2018-Jun-24 09:30N 40°39' W 074°07'0 0.0
2018-Jun-24 08:58N 40°39' W 074°07'0 0.0
2018-Jun-24 08:29N 40°39' W 074°07'3 5.5
2018-Jun-24 08:00N 40°41' W 074°04'1 2.3
2018-Jun-24 07:30N 40°40' W 074°04'3 6.1
2018-Jun-24 07:00N 40°39' W 074°08'2 0.5
2018-Jun-24 02:53N 40°39' W 074°11'2 6.6
2018-Jun-24 02:30N 40°39' W 074°08'3 5.9
2018-Jun-24 02:00N 40°40' W 074°04'2 3.0
2018-Jun-24 01:30N 40°41' W 074°05'0 0.0
2018-Jun-24 01:00N 40°41' W 074°05'0 0.0
2018-Jun-24 00:30N 40°41' W 074°05'0 0.0
2018-Jun-24 00:00N 40°41' W 074°05'0 0.0
2018-Jun-23 23:30N 40°41' W 074°05'0 0.0
2018-Jun-23 23:00N 40°41' W 074°05'0 0.0
2018-Jun-23 22:30N 40°41' W 074°05'0 0.3
2018-Jun-23 22:00N 40°41' W 074°05'1 1.2
2018-Jun-23 21:30N 40°41' W 074°04'3 5.5
2018-Jun-23 21:00N 40°40' W 074°01'1 1.1
2018-Jun-23 20:30N 40°40' W 074°01'3 5.9
2018-Jun-23 20:00N 40°41' W 074°05'0 0.0
2018-Jun-23 19:30N 40°41' W 074°05'0 0.0
2018-Jun-23 19:00N 40°41' W 074°05'0 0.0
2018-Jun-23 18:30N 40°41' W 074°05'0 0.0
2018-Jun-23 18:00N 40°41' W 074°05'0 0.0
2018-Jun-23 17:30N 40°41' W 074°05'0 0.0
2018-Jun-23 17:00N 40°41' W 074°05'0 0.0
2018-Jun-23 16:30N 40°41' W 074°05'0 0.0
2018-Jun-23 16:00N 40°41' W 074°05'0 0.0
2018-Jun-23 15:30N 40°41' W 074°05'0 0.0
2018-Jun-23 15:00N 40°41' W 074°05'0 0.0
2018-Jun-23 14:30N 40°41' W 074°05'0 0.0
2018-Jun-23 14:00N 40°41' W 074°05'0 0.0
2018-Jun-23 13:30N 40°41' W 074°05'0 0.0
2018-Jun-23 13:00N 40°41' W 074°05'0 0.0
2018-Jun-23 12:30N 40°41' W 074°05'0 0.0
2018-Jun-23 12:00N 40°41' W 074°05'0 0.0
2018-Jun-23 11:30N 40°41' W 074°05'0 0.0
2018-Jun-23 11:00N 40°41' W 074°05'0 0.0
2018-Jun-23 10:30N 40°41' W 074°05'0 0.0
2018-Jun-23 10:00N 40°41' W 074°05'0 0.0
2018-Jun-23 09:30N 40°41' W 074°05'0 0.0
2018-Jun-23 08:59N 40°41' W 074°05'0 0.0
2018-Jun-23 08:30N 40°41' W 074°05'0 0.0
2018-Jun-23 08:00N 40°41' W 074°05'0 0.0
2018-Jun-23 07:30N 40°41' W 074°05'0 0.0
2018-Jun-23 07:00N 40°41' W 074°05'0 0.0
2018-Jun-23 06:30N 40°41' W 074°05'0 0.0
2018-Jun-23 06:00N 40°41' W 074°05'0 0.0
2018-Jun-23 05:30N 40°41' W 074°05'0 0.0
2018-Jun-23 05:00N 40°41' W 074°05'0 0.0
2018-Jun-23 04:30N 40°41' W 074°05'0 0.0
2018-Jun-23 04:00N 40°41' W 074°05'0 0.0
2018-Jun-23 03:30N 40°41' W 074°05'0 0.0
2018-Jun-23 03:00N 40°41' W 074°05'0 0.0
2018-Jun-23 02:30N 40°41' W 074°05'0 0.0
2018-Jun-23 01:59N 40°41' W 074°05'0 0.0
2018-Jun-23 01:27N 40°41' W 074°05'0 0.0
2018-Jun-23 01:00N 40°41' W 074°05'0 0.0
2018-Jun-23 00:30N 40°41' W 074°05'0 0.0
2018-Jun-22 23:59N 40°41' W 074°05'0 0.0
2018-Jun-22 23:30N 40°41' W 074°05'0 0.0
2018-Jun-22 23:00N 40°41' W 074°05'0 0.0
2018-Jun-22 22:30N 40°41' W 074°05'0 0.0
2018-Jun-22 22:00N 40°41' W 074°05'0 0.0
2018-Jun-22 21:30N 40°41' W 074°05'0 0.0
2018-Jun-22 21:00N 40°41' W 074°05'0 0.0
2018-Jun-22 20:26N 40°41' W 074°05'2 4.2
2018-Jun-22 20:00N 40°42' W 074°02'3 6.5
2018-Jun-22 19:30N 40°43' W 073°58'1 3.0
2018-Jun-22 19:00N 40°44' W 073°58'3 6.3
2018-Jun-22 18:30N 40°42' W 074°01'4 7.7
2018-Jun-22 18:00N 40°46' W 074°00'2 4.5
2018-Jun-22 17:30N 40°44' W 074°01'3 5.4
2018-Jun-22 17:00N 40°41' W 074°03'2 3.2
2018-Jun-22 16:30N 40°41' W 074°05'0 0.0
2018-Jun-22 16:00N 40°41' W 074°05'0 0.0
2018-Jun-22 15:30N 40°41' W 074°05'0 0.0
2018-Jun-22 15:00N 40°41' W 074°05'0 0.0
2018-Jun-22 14:30N 40°41' W 074°05'0 0.0
2018-Jun-22 14:00N 40°41' W 074°05'0 0.0
2018-Jun-22 13:30N 40°41' W 074°05'1 2.3
2018-Jun-22 13:00N 40°40' W 074°04'2 4.6
2018-Jun-22 12:30N 40°40' W 074°01'3 6.4
2018-Jun-22 12:00N 40°41' W 074°04'0 0.4
2018-Jun-22 11:30N 40°41' W 074°05'0 0.0
2018-Jun-22 11:00N 40°41' W 074°05'0 0.0
2018-Jun-22 10:30N 40°41' W 074°05'0 0.0
2018-Jun-22 10:00N 40°41' W 074°05'0 0.0
2018-Jun-22 09:30N 40°41' W 074°05'0 0.0
2018-Jun-22 09:00N 40°41' W 074°05'0 0.0
2018-Jun-22 08:30N 40°41' W 074°05'0 0.0
2018-Jun-22 08:00N 40°41' W 074°05'0 0.0
2018-Jun-22 07:30N 40°41' W 074°05'0 0.0
2018-Jun-22 07:00N 40°41' W 074°05'0 0.0
2018-Jun-22 06:30N 40°41' W 074°05'0 0.0
2018-Jun-22 06:00N 40°41' W 074°05'0 0.0
2018-Jun-22 05:30N 40°41' W 074°05'0 0.0
2018-Jun-22 05:00N 40°41' W 074°05'0 0.0
2018-Jun-22 04:30N 40°41' W 074°05'0 0.0
2018-Jun-22 04:00N 40°41' W 074°05'0 0.0
2018-Jun-22 03:30N 40°41' W 074°05'0 0.0
2018-Jun-22 03:00N 40°41' W 074°05'0 0.0
2018-Jun-22 02:30N 40°41' W 074°05'0 0.0
2018-Jun-22 02:00N 40°41' W 074°05'0 0.0
2018-Jun-22 01:30N 40°41' W 074°05'0 0.0
2018-Jun-22 01:00N 40°41' W 074°05'0 0.0
2018-Jun-22 00:30N 40°41' W 074°05'0 0.0
2018-Jun-22 00:00N 40°41' W 074°05'0 0.0
2018-Jun-21 23:30N 40°41' W 074°05'0 0.0
2018-Jun-21 23:00N 40°41' W 074°05'0 0.0
2018-Jun-21 22:30N 40°41' W 074°05'0 0.0
2018-Jun-21 22:00N 40°41' W 074°05'0 0.0
2018-Jun-21 21:30N 40°41' W 074°05'0 0.0
2018-Jun-21 21:00N 40°41' W 074°05'0 0.0
2018-Jun-21 20:30N 40°41' W 074°05'0 0.0
2018-Jun-21 20:00N 40°41' W 074°05'0 0.0
2018-Jun-21 19:30N 40°41' W 074°05'0 0.0
2018-Jun-21 19:00N 40°41' W 074°05'0 0.0
2018-Jun-21 18:30N 40°41' W 074°05'0 0.0
2018-Jun-21 18:00N 40°41' W 074°05'0 0.0
2018-Jun-21 17:30N 40°41' W 074°05'0 0.0
2018-Jun-21 17:00N 40°41' W 074°05'0 0.0
2018-Jun-21 16:29N 40°41' W 074°05'0 0.0
2018-Jun-21 16:00N 40°41' W 074°05'0 0.0
2018-Jun-21 15:30N 40°41' W 074°05'0 0.0
2018-Jun-21 15:00N 40°41' W 074°05'0 0.0
2018-Jun-21 14:30N 40°41' W 074°05'0 0.0
2018-Jun-21 14:00N 40°41' W 074°05'0 0.0
2018-Jun-21 13:30N 40°41' W 074°05'0 0.0
2018-Jun-21 13:00N 40°41' W 074°05'0 0.0
2018-Jun-21 12:30N 40°41' W 074°05'0 0.0
2018-Jun-21 12:00N 40°41' W 074°05'0 0.0
2018-Jun-21 11:30N 40°41' W 074°05'0 0.0
2018-Jun-21 11:00N 40°41' W 074°05'0 0.0
2018-Jun-21 10:30N 40°41' W 074°05'0 0.0
2018-Jun-21 10:00N 40°41' W 074°05'0 0.0
2018-Jun-21 09:30N 40°41' W 074°05'0 0.0
2018-Jun-21 09:00N 40°41' W 074°05'0 0.0
2018-Jun-21 08:30N 40°41' W 074°05'0 0.0
2018-Jun-21 08:00N 40°41' W 074°05'0 0.0
2018-Jun-21 07:30N 40°41' W 074°05'0 0.0
2018-Jun-21 07:00N 40°41' W 074°05'0 0.0
2018-Jun-21 06:30N 40°41' W 074°05'0 0.0
2018-Jun-21 06:00N 40°41' W 074°05'0 0.0
2018-Jun-21 05:30N 40°41' W 074°05'0 0.0
2018-Jun-21 05:00N 40°41' W 074°05'0 0.0
2018-Jun-21 04:30N 40°41' W 074°05'0 0.0
2018-Jun-21 04:00N 40°41' W 074°05'0 0.0
2018-Jun-21 03:30N 40°41' W 074°05'0 0.0
2018-Jun-21 03:00N 40°41' W 074°05'0 0.0
2018-Jun-21 02:30N 40°41' W 074°05'0 0.0
2018-Jun-21 02:00N 40°41' W 074°05'0 0.0
2018-Jun-21 01:30N 40°41' W 074°05'0 0.0
2018-Jun-21 01:00N 40°41' W 074°05'0 0.0
2018-Jun-21 00:30N 40°41' W 074°05'0 0.0
2018-Jun-20 23:59N 40°41' W 074°05'0 0.0
2018-Jun-20 23:30N 40°41' W 074°05'0 0.0
2018-Jun-20 23:00N 40°41' W 074°05'0 0.0
2018-Jun-20 22:30N 40°41' W 074°05'0 0.0
2018-Jun-20 22:00N 40°41' W 074°05'0 0.0
2018-Jun-20 21:30N 40°41' W 074°05'0 0.0
2018-Jun-20 21:00N 40°41' W 074°05'1 1.6
2018-Jun-20 20:30N 40°41' W 074°04'3 5.1
2018-Jun-20 19:59N 40°40' W 074°01'2 4.5
2018-Jun-20 19:30N 40°42' W 074°00'2 4.6
2018-Jun-20 18:59N 40°44' W 073°58'1 2.5
2018-Jun-20 18:28N 40°44' W 073°57'1 2.5
2018-Jun-20 18:00N 40°44' W 073°58'4 8.6
2018-Jun-20 17:30N 40°41' W 074°02'2 3.9
2018-Jun-20 17:00N 40°41' W 074°05'0 0.1
2018-Jun-20 16:30N 40°41' W 074°05'0 0.0
2018-Jun-20 16:00N 40°41' W 074°05'0 0.0
2018-Jun-20 15:30N 40°41' W 074°05'0 0.0
2018-Jun-20 15:00N 40°41' W 074°05'0 0.0
2018-Jun-20 14:30N 40°41' W 074°05'0 0.0
2018-Jun-20 14:00N 40°41' W 074°05'0 0.0
2018-Jun-20 13:29N 40°41' W 074°05'0 0.0
2018-Jun-20 12:56N 40°41' W 074°05'0 0.0
2018-Jun-20 12:30N 40°41' W 074°05'0 0.0
2018-Jun-20 12:00N 40°41' W 074°05'0 0.0
2018-Jun-20 11:27N 40°41' W 074°05'0 0.0
2018-Jun-20 10:58N 40°41' W 074°05'0 0.0
2018-Jun-20 10:30N 40°41' W 074°05'0 0.0
2018-Jun-20 10:00N 40°41' W 074°05'0 0.0
2018-Jun-20 09:30N 40°41' W 074°05'0 0.0
2018-Jun-20 09:00N 40°41' W 074°05'0 0.0
2018-Jun-20 08:30N 40°41' W 074°05'0 0.0
2018-Jun-20 08:00N 40°41' W 074°05'0 0.0
2018-Jun-20 07:30N 40°41' W 074°05'0 0.0
2018-Jun-20 07:00N 40°41' W 074°05'0 0.0
2018-Jun-20 06:30N 40°41' W 074°05'0 0.0
2018-Jun-20 06:00N 40°41' W 074°05'0 0.0
2018-Jun-20 05:30N 40°41' W 074°05'0 0.0
2018-Jun-20 05:00N 40°41' W 074°05'0 0.0
2018-Jun-20 04:30N 40°41' W 074°05'0 0.0
2018-Jun-20 03:54N 40°41' W 074°05'0 0.0
2018-Jun-20 03:30N 40°41' W 074°05'0 0.0
2018-Jun-20 03:00N 40°41' W 074°05'0 0.0
2018-Jun-20 02:30N 40°41' W 074°05'0 0.0
2018-Jun-20 02:00N 40°41' W 074°05'0 0.0
2018-Jun-20 01:27N 40°41' W 074°05'0 0.0
2018-Jun-20 01:00N 40°41' W 074°05'0 0.0
2018-Jun-20 00:28N 40°41' W 074°05'0 0.0
2018-Jun-20 00:00N 40°41' W 074°05'0 0.0
2018-Jun-19 23:30N 40°41' W 074°05'0 0.0
2018-Jun-19 23:00N 40°41' W 074°05'0 0.0
2018-Jun-19 22:30N 40°41' W 074°05'0 0.0
2018-Jun-19 22:00N 40°41' W 074°05'0 0.0
2018-Jun-19 21:30N 40°41' W 074°05'1 2.3
2018-Jun-19 21:00N 40°40' W 074°03'4 8.3
2018-Jun-19 20:30N 40°43' W 073°59'2 4.1
2018-Jun-19 19:59N 40°44' W 073°57'0 0.8
2018-Jun-19 19:28N 40°44' W 073°58'3 7.3
2018-Jun-19 19:00N 40°42' W 074°00'2 4.2
2018-Jun-19 18:30N 40°40' W 074°01'3 5.9
2018-Jun-19 18:00N 40°41' W 074°05'0 0.0
2018-Jun-19 17:30N 40°41' W 074°05'0 0.0
2018-Jun-19 17:00N 40°41' W 074°05'0 0.0
2018-Jun-19 16:30N 40°41' W 074°05'0 0.4
2018-Jun-19 16:00N 40°41' W 074°04'2 4.1
2018-Jun-19 15:30N 40°39' W 074°05'3 5.3
2018-Jun-19 15:00N 40°39' W 074°09'2 4.0
2018-Jun-19 14:23N 40°42' W 074°09'3 6.1
2018-Jun-19 13:58N 40°39' W 074°09'3 6.2
2018-Jun-19 13:30N 40°39' W 074°05'3 5.8
2018-Jun-19 13:00N 40°37' W 074°03'8 5.2
2018-Jun-19 11:27N 40°35' W 073°52'7 4.1
2018-Jun-19 09:43N 40°36' W 074°02'210.3
2018-Jun-19 09:30N 40°38' W 074°03'2 4.6
2018-Jun-19 09:00N 40°40' W 074°01'3 6.4
2018-Jun-19 08:30N 40°43' W 073°59'5 2.2
2018-Jun-19 06:09N 40°47' W 073°55'2 9.5
2018-Jun-19 05:58N 40°46' W 073°57'4 8.7
2018-Jun-19 05:30N 40°42' W 073°59'4 7.5
2018-Jun-19 05:00N 40°41' W 074°04'1 1.5
2018-Jun-19 04:30N 40°41' W 074°04'0 0.3
2018-Jun-19 03:59N 40°41' W 074°05'0 0.0
2018-Jun-19 03:30N 40°41' W 074°05'0 0.0
2018-Jun-19 03:00N 40°41' W 074°05'0 0.0
2018-Jun-19 02:30N 40°41' W 074°05'0 0.0
2018-Jun-19 01:59N 40°41' W 074°05'0 0.0
2018-Jun-19 01:30N 40°41' W 074°05'0 0.0
2018-Jun-19 01:00N 40°41' W 074°05'0 0.0
2018-Jun-19 00:22N 40°41' W 074°05'0 0.0
2018-Jun-19 00:00N 40°41' W 074°05'0 0.0
2018-Jun-18 23:30N 40°41' W 074°05'3 6.0
2018-Jun-18 23:00N 40°40' W 074°01'1 2.2
2018-Jun-18 22:30N 40°41' W 074°01'4 8.5
2018-Jun-18 22:00N 40°44' W 073°58'0 0.5
2018-Jun-18 21:30N 40°44' W 073°57'2 4.4
2018-Jun-18 21:01N 40°43' W 073°59'2 4.8
2018-Jun-18 20:30N 40°41' W 074°01'2 4.8
2018-Jun-18 20:00N 40°41' W 074°05'0 0.3
2018-Jun-18 19:30N 40°41' W 074°05'0 0.0
2018-Jun-18 19:00N 40°41' W 074°05'0 0.0
2018-Jun-18 18:30N 40°41' W 074°05'0 0.0
2018-Jun-18 18:00N 40°41' W 074°05'0 0.0
2018-Jun-18 17:30N 40°41' W 074°05'0 0.0
2018-Jun-18 17:00N 40°41' W 074°05'0 0.0
2018-Jun-18 16:30N 40°41' W 074°05'0 0.0
2018-Jun-18 16:00N 40°41' W 074°05'0 0.0
2018-Jun-18 15:30N 40°41' W 074°05'0 0.0
2018-Jun-18 15:00N 40°41' W 074°05'0 0.0
2018-Jun-18 14:30N 40°41' W 074°05'0 0.0
2018-Jun-18 14:00N 40°41' W 074°05'0 0.0
2018-Jun-18 13:30N 40°41' W 074°05'0 0.0
2018-Jun-18 13:00N 40°41' W 074°05'0 0.0
2018-Jun-18 12:30N 40°41' W 074°05'0 0.0
2018-Jun-18 12:00N 40°41' W 074°05'0 0.0
2018-Jun-18 11:30N 40°41' W 074°05'0 0.0
2018-Jun-18 10:51N 40°41' W 074°05'0 0.0
2018-Jun-18 10:30N 40°41' W 074°05'0 0.0
2018-Jun-18 10:00N 40°41' W 074°05'0 0.0
2018-Jun-18 09:30N 40°41' W 074°05'0 0.0
2018-Jun-18 09:00N 40°41' W 074°05'0 0.0
2018-Jun-18 08:30N 40°41' W 074°05'0 0.0
2018-Jun-18 08:00N 40°41' W 074°05'0 0.0
2018-Jun-18 07:30N 40°41' W 074°05'0 0.0
2018-Jun-18 07:00N 40°41' W 074°05'0 0.0
2018-Jun-18 06:30N 40°41' W 074°05'0 0.0
2018-Jun-18 06:00N 40°41' W 074°05'0 0.0
2018-Jun-18 05:30N 40°41' W 074°05'0 0.0
2018-Jun-18 05:00N 40°41' W 074°05'0 0.0
2018-Jun-18 04:30N 40°41' W 074°05'0 0.1
2018-Jun-18 04:00N 40°41' W 074°05'1 2.9
2018-Jun-18 03:30N 40°40' W 074°04'3 6.6
2018-Jun-18 03:00N 40°39' W 074°08'2 0.9
2018-Jun-18 01:13N 40°39' W 074°10'2 8.2
2018-Jun-18 01:00N 40°39' W 074°08'4 7.1
2018-Jun-18 00:30N 40°41' W 074°04'1 1.7
2018-Jun-18 00:00N 40°41' W 074°05'0 0.2
2018-Jun-17 23:29N 40°41' W 074°05'0 0.0
2018-Jun-17 23:00N 40°41' W 074°05'0 0.0
2018-Jun-17 22:30N 40°41' W 074°05'0 0.0
2018-Jun-17 22:00N 40°41' W 074°05'0 0.0
2018-Jun-17 21:30N 40°41' W 074°05'0 0.0
2018-Jun-17 21:00N 40°41' W 074°05'0 0.0
2018-Jun-17 20:30N 40°41' W 074°05'0 0.0
2018-Jun-17 20:00N 40°41' W 074°05'0 0.0
2018-Jun-17 19:29N 40°41' W 074°05'0 0.0
2018-Jun-17 19:00N 40°41' W 074°05'0 0.0
2018-Jun-17 18:30N 40°41' W 074°05'0 0.0
2018-Jun-17 17:57N 40°41' W 074°05'0 0.0
2018-Jun-17 17:26N 40°41' W 074°05'0 0.0
2018-Jun-17 17:00N 40°41' W 074°05'0 0.0
2018-Jun-17 16:29N 40°41' W 074°05'0 0.0
2018-Jun-17 16:00N 40°41' W 074°05'0 0.0
2018-Jun-17 15:30N 40°41' W 074°05'0 0.0
2018-Jun-17 15:00N 40°41' W 074°05'0 0.0
2018-Jun-17 14:30N 40°41' W 074°05'0 0.0
2018-Jun-17 14:00N 40°41' W 074°05'0 0.0
2018-Jun-17 13:30N 40°41' W 074°05'0 0.0
2018-Jun-17 13:00N 40°41' W 074°05'0 0.0
2018-Jun-17 12:30N 40°41' W 074°05'0 0.0
2018-Jun-17 12:00N 40°41' W 074°05'0 0.0
2018-Jun-17 11:30N 40°41' W 074°05'0 0.0
2018-Jun-17 11:00N 40°41' W 074°05'0 0.0
2018-Jun-17 10:30N 40°41' W 074°05'0 0.0
2018-Jun-17 10:00N 40°41' W 074°05'0 0.0
2018-Jun-17 09:30N 40°41' W 074°05'0 0.0
2018-Jun-17 09:00N 40°41' W 074°05'0 0.0
2018-Jun-17 08:30N 40°41' W 074°05'0 0.0
2018-Jun-17 08:00N 40°41' W 074°05'0 0.0
2018-Jun-17 07:30N 40°41' W 074°05'0 0.0
2018-Jun-17 07:00N 40°41' W 074°05'0 0.0
2018-Jun-17 06:30N 40°41' W 074°05'0 0.0
2018-Jun-17 06:00N 40°41' W 074°05'0 0.0
2018-Jun-17 05:30N 40°41' W 074°05'0 0.0
2018-Jun-17 05:00N 40°41' W 074°05'0 0.0
2018-Jun-17 04:30N 40°41' W 074°05'0 0.0
2018-Jun-17 04:00N 40°41' W 074°05'0 0.3
2018-Jun-17 03:30N 40°41' W 074°04'1 2.4
2018-Jun-17 03:00N 40°41' W 074°03'3 5.5
2018-Jun-17 02:30N 40°42' W 073°60'2 4.0
2018-Jun-17 02:00N 40°44' W 073°58'1 2.1
2018-Jun-17 01:27N 40°44' W 073°57'3 7.1
2018-Jun-17 01:00N 40°42' W 073°60'3 5.1
2018-Jun-17 00:30N 40°40' W 074°01'3 6.8
2018-Jun-17 00:00N 40°41' W 074°05'0 0.0
2018-Jun-16 23:30N 40°41' W 074°05'0 0.0
2018-Jun-16 23:00N 40°41' W 074°05'0 0.0
2018-Jun-16 22:30N 40°41' W 074°05'0 0.0
2018-Jun-16 22:00N 40°41' W 074°05'0 0.0
2018-Jun-16 21:30N 40°41' W 074°05'0 0.0
2018-Jun-16 21:00N 40°41' W 074°05'0 0.0
2018-Jun-16 20:30N 40°41' W 074°05'0 0.0
2018-Jun-16 20:00N 40°41' W 074°05'0 0.3
2018-Jun-16 19:30N 40°41' W 074°05'0 0.3
2018-Jun-16 19:00N 40°41' W 074°05'0 0.0
2018-Jun-16 18:30N 40°41' W 074°05'0 0.0
2018-Jun-16 18:00N 40°41' W 074°05'0 0.0
2018-Jun-16 17:30N 40°41' W 074°05'0 0.0
2018-Jun-16 17:00N 40°41' W 074°05'0 0.0
2018-Jun-16 16:30N 40°41' W 074°05'0 0.0
2018-Jun-16 16:00N 40°41' W 074°05'0 0.0
2018-Jun-16 15:30N 40°41' W 074°05'0 0.0
2018-Jun-16 15:00N 40°41' W 074°05'0 0.0
2018-Jun-16 14:30N 40°41' W 074°05'0 0.0
2018-Jun-16 13:59N 40°41' W 074°05'0 0.0
2018-Jun-16 13:30N 40°41' W 074°05'0 0.0
2018-Jun-16 13:00N 40°41' W 074°05'0 0.0
2018-Jun-16 12:30N 40°41' W 074°05'0 0.0
2018-Jun-16 12:00N 40°41' W 074°05'0 0.0
2018-Jun-16 11:30N 40°41' W 074°05'0 0.0
2018-Jun-16 11:00N 40°41' W 074°05'0 0.0
2018-Jun-16 10:30N 40°41' W 074°05'0 0.0
2018-Jun-16 10:00N 40°41' W 074°05'0 0.0
2018-Jun-16 09:30N 40°41' W 074°05'0 0.0
2018-Jun-16 09:00N 40°41' W 074°05'0 0.0
2018-Jun-16 08:30N 40°41' W 074°05'0 0.0
2018-Jun-16 08:00N 40°41' W 074°05'0 0.0
2018-Jun-16 07:30N 40°41' W 074°05'0 0.0
2018-Jun-16 07:00N 40°41' W 074°05'0 0.1
2018-Jun-16 06:30N 40°41' W 074°05'2 3.3
2018-Jun-16 06:00N 40°41' W 074°02'4 8.6
2018-Jun-16 05:30N 40°44' W 073°58'4 1.7
2018-Jun-16 03:14N 40°47' W 073°55'2 9.3
2018-Jun-16 03:00N 40°46' W 073°57'4 8.8
2018-Jun-16 02:30N 40°42' W 074°00'2 4.5
2018-Jun-16 02:00N 40°40' W 074°01'0 0.0
2018-Jun-16 01:30N 40°40' W 074°01'0 0.0
2018-Jun-16 01:00N 40°40' W 074°01'0 0.0
2018-Jun-16 00:30N 40°40' W 074°01'1 1.9
2018-Jun-16 00:00N 40°41' W 074°01'2 4.6
2018-Jun-15 23:30N 40°42' W 073°59'2 4.8
2018-Jun-15 22:59N 40°44' W 073°57'0 0.5
2018-Jun-15 22:30N 40°44' W 073°57'3 6.6
2018-Jun-15 22:00N 40°42' W 074°00'3 6.0
2018-Jun-15 21:30N 40°40' W 074°03'1 2.3
2018-Jun-15 21:00N 40°41' W 074°04'0 0.3
2018-Jun-15 20:30N 40°41' W 074°05'0 0.0
2018-Jun-15 20:00N 40°41' W 074°05'0 0.0
2018-Jun-15 19:30N 40°41' W 074°05'0 0.0
2018-Jun-15 19:00N 40°41' W 074°05'0 0.0
2018-Jun-15 18:30N 40°41' W 074°05'0 0.0
2018-Jun-15 18:00N 40°41' W 074°05'0 0.0
2018-Jun-15 17:30N 40°41' W 074°05'0 0.0
2018-Jun-15 17:00N 40°41' W 074°05'0 0.0
2018-Jun-15 16:30N 40°41' W 074°05'0 0.0
2018-Jun-15 16:00N 40°41' W 074°05'0 0.0
2018-Jun-15 15:30N 40°41' W 074°05'  
Track history (hours):
 
Tides and Currents Weather Stations Pressure Air Temp Water Temp Dewpoint Dewpoint Depression Visibility Wind Speed Wind Dir Waves Ship Positions

Kathleen

Owner: GMT LLC, Mandeville, LA. More information available from US FCC via Universal Licensing System and Coast Guard Vessel Documentation Center.

Last reported at 2018-Jun-25 16:00 UTC. Time now 2018-Jun-25 15:57 UTC.
Position N 40°41' W 074°05'.

Length 23 m; draft 3 m.

Type: Tow > 200 m length. MMSI: 367143860.

Date/timePositionNaut miles runAvg speedWind from/ knotsBaromVisibWave heightAir tempDewpointWater temp
2018-Jun-25 16:00N 40°41' W 074°05'0 0.0
2018-Jun-25 15:30N 40°41' W 074°05'0 0.0
2018-Jun-25 15:00N 40°41' W 074°05'0 0.0
2018-Jun-25 14:30N 40°41' W 074°05'0 0.0
2018-Jun-25 14:00N 40°41' W 074°05'0 0.0
2018-Jun-25 13:30N 40°41' W 074°05'0 0.0
2018-Jun-25 13:00N 40°41' W 074°05'0 0.0
2018-Jun-25 12:30N 40°41' W 074°05'0 0.0
2018-Jun-25 12:00N 40°41' W 074°05'0 0.0
2018-Jun-25 11:30N 40°41' W 074°05'0 0.0
2018-Jun-25 11:00N 40°41' W 074°05'0 0.0
2018-Jun-25 10:30N 40°41' W 074°05'0 0.0
2018-Jun-25 10:00N 40°41' W 074°05'0 0.0
2018-Jun-25 09:30N 40°41' W 074°05'0 0.0
2018-Jun-25 09:00N 40°41' W 074°05'0 0.0
2018-Jun-25 08:30N 40°41' W 074°05'0 0.0
2018-Jun-25 08:00N 40°41' W 074°05'0 0.0
2018-Jun-25 07:30N 40°41' W 074°05'0 0.0
2018-Jun-25 07:00N 40°41' W 074°05'0 0.0
2018-Jun-25 06:30N 40°41' W 074°05'0 0.0
2018-Jun-25 06:00N 40°41' W 074°05'0 0.0
2018-Jun-25 05:30N 40°41' W 074°05'0 0.0
2018-Jun-25 05:00N 40°41' W 074°05'0 0.0
2018-Jun-25 04:30N 40°41' W 074°05'0 0.0
2018-Jun-25 04:00N 40°41' W 074°05'3 5.9
2018-Jun-25 03:30N 40°40' W 074°01'0 1.0
2018-Jun-25 03:00N 40°40' W 074°01'1 1.8
2018-Jun-25 02:30N 40°40' W 074°01'4 8.4
2018-Jun-25 02:00N 40°44' W 073°58'4 1.6
2018-Jun-24 23:35N 40°47' W 073°55'1 9.1
2018-Jun-24 23:29N 40°47' W 073°56'4 8.7
2018-Jun-24 23:00N 40°43' W 073°58'4 7.2
2018-Jun-24 22:30N 40°40' W 074°01'3 5.1
2018-Jun-24 22:00N 40°41' W 074°04'1 1.5
2018-Jun-24 21:30N 40°41' W 074°05'0 0.0
2018-Jun-24 21:00N 40°41' W 074°05'0 0.0
2018-Jun-24 20:30N 40°41' W 074°05'0 0.0
2018-Jun-24 20:00N 40°41' W 074°05'0 0.0
2018-Jun-24 19:30N 40°41' W 074°05'0 0.0
2018-Jun-24 19:00N 40°41' W 074°05'0 0.0
2018-Jun-24 18:30N 40°41' W 074°05'0 0.0
2018-Jun-24 18:00N 40°41' W 074°05'0 0.0
2018-Jun-24 17:30N 40°41' W 074°05'0 0.0
2018-Jun-24 17:00N 40°41' W 074°05'0 0.0
2018-Jun-24 16:30N 40°41' W 074°05'0 0.0
2018-Jun-24 16:00N 40°41' W 074°05'0 0.0
2018-Jun-24 15:30N 40°41' W 074°05'0 0.0
2018-Jun-24 15:00N 40°41' W 074°05'0 0.0
2018-Jun-24 14:30N 40°41' W 074°05'0 0.0
2018-Jun-24 14:00N 40°41' W 074°05'0 0.0
2018-Jun-24 13:30N 40°41' W 074°05'0 0.0
2018-Jun-24 13:00N 40°41' W 074°05'2 3.8
2018-Jun-24 12:30N 40°39' W 074°05'2 3.1
2018-Jun-24 12:00N 40°39' W 074°07'0 0.0
2018-Jun-24 11:30N 40°39' W 074°07'0 0.0
2018-Jun-24 11:00N 40°39' W 074°07'0 0.0
2018-Jun-24 10:30N 40°39' W 074°07'0 0.0
2018-Jun-24 10:00N 40°39' W 074°07'0 0.0
2018-Jun-24 09:30N 40°39' W 074°07'0 0.0
2018-Jun-24 08:58N 40°39' W 074°07'0 0.0
2018-Jun-24 08:29N 40°39' W 074°07'3 5.5
2018-Jun-24 08:00N 40°41' W 074°04'1 2.3
2018-Jun-24 07:30N 40°40' W 074°04'3 6.1
2018-Jun-24 07:00N 40°39' W 074°08'2 0.5
2018-Jun-24 02:53N 40°39' W 074°11'2 6.6
2018-Jun-24 02:30N 40°39' W 074°08'3 5.9
2018-Jun-24 02:00N 40°40' W 074°04'2 3.0
2018-Jun-24 01:30N 40°41' W 074°05'0 0.0
2018-Jun-24 01:00N 40°41' W 074°05'0 0.0
2018-Jun-24 00:30N 40°41' W 074°05'0 0.0
2018-Jun-24 00:00N 40°41' W 074°05'0 0.0
2018-Jun-23 23:30N 40°41' W 074°05'0 0.0
2018-Jun-23 23:00N 40°41' W 074°05'0 0.0
2018-Jun-23 22:30N 40°41' W 074°05'0 0.3
2018-Jun-23 22:00N 40°41' W 074°05'1 1.2
2018-Jun-23 21:30N 40°41' W 074°04'3 5.5
2018-Jun-23 21:00N 40°40' W 074°01'1 1.1
2018-Jun-23 20:30N 40°40' W 074°01'3 5.9
2018-Jun-23 20:00N 40°41' W 074°05'0 0.0
2018-Jun-23 19:30N 40°41' W 074°05'0 0.0
2018-Jun-23 19:00N 40°41' W 074°05'0 0.0
2018-Jun-23 18:30N 40°41' W 074°05'0 0.0
2018-Jun-23 18:00N 40°41' W 074°05'0 0.0
2018-Jun-23 17:30N 40°41' W 074°05'0 0.0
2018-Jun-23 17:00N 40°41' W 074°05'0 0.0
2018-Jun-23 16:30N 40°41' W 074°05'0 0.0
2018-Jun-23 16:00N 40°41' W 074°05'0 0.0
2018-Jun-23 15:30N 40°41' W 074°05'0 0.0
2018-Jun-23 15:00N 40°41' W 074°05'0 0.0
2018-Jun-23 14:30N 40°41' W 074°05'0 0.0
2018-Jun-23 14:00N 40°41' W 074°05'0 0.0
2018-Jun-23 13:30N 40°41' W 074°05'0 0.0
2018-Jun-23 13:00N 40°41' W 074°05'0 0.0
2018-Jun-23 12:30N 40°41' W 074°05'0 0.0
2018-Jun-23 12:00N 40°41' W 074°05'0 0.0
2018-Jun-23 11:30N 40°41' W 074°05'0 0.0
2018-Jun-23 11:00N 40°41' W 074°05'0 0.0
2018-Jun-23 10:30N 40°41' W 074°05'0 0.0
2018-Jun-23 10:00N 40°41' W 074°05'0 0.0
2018-Jun-23 09:30N 40°41' W 074°05'0 0.0
2018-Jun-23 08:59N 40°41' W 074°05'0 0.0
2018-Jun-23 08:30N 40°41' W 074°05'0 0.0
2018-Jun-23 08:00N 40°41' W 074°05'0 0.0
2018-Jun-23 07:30N 40°41' W 074°05'0 0.0
2018-Jun-23 07:00N 40°41' W 074°05'0 0.0
2018-Jun-23 06:30N 40°41' W 074°05'0 0.0
2018-Jun-23 06:00N 40°41' W 074°05'0 0.0
2018-Jun-23 05:30N 40°41' W 074°05'0 0.0
2018-Jun-23 05:00N 40°41' W 074°05'0 0.0
2018-Jun-23 04:30N 40°41' W 074°05'0 0.0
2018-Jun-23 04:00N 40°41' W 074°05'0 0.0
2018-Jun-23 03:30N 40°41' W 074°05'0 0.0
2018-Jun-23 03:00N 40°41' W 074°05'0 0.0
2018-Jun-23 02:30N 40°41' W 074°05'0 0.0
2018-Jun-23 01:59N 40°41' W 074°05'0 0.0
2018-Jun-23 01:27N 40°41' W 074°05'0 0.0
2018-Jun-23 01:00N 40°41' W 074°05'0 0.0
2018-Jun-23 00:30N 40°41' W 074°05'0 0.0
2018-Jun-22 23:59N 40°41' W 074°05'0 0.0
2018-Jun-22 23:30N 40°41' W 074°05'0 0.0
2018-Jun-22 23:00N 40°41' W 074°05'0 0.0
2018-Jun-22 22:30N 40°41' W 074°05'0 0.0
2018-Jun-22 22:00N 40°41' W 074°05'0 0.0
2018-Jun-22 21:30N 40°41' W 074°05'0 0.0
2018-Jun-22 21:00N 40°41' W 074°05'0 0.0
2018-Jun-22 20:26N 40°41' W 074°05'2 4.2
2018-Jun-22 20:00N 40°42' W 074°02'3 6.5
2018-Jun-22 19:30N 40°43' W 073°58'1 3.0
2018-Jun-22 19:00N 40°44' W 073°58'3 6.3
2018-Jun-22 18:30N 40°42' W 074°01'4 7.7
2018-Jun-22 18:00N 40°46' W 074°00'2 4.5
2018-Jun-22 17:30N 40°44' W 074°01'3 5.4
2018-Jun-22 17:00N 40°41' W 074°03'2 3.2
2018-Jun-22 16:30N 40°41' W 074°05'0 0.0
2018-Jun-22 16:00N 40°41' W 074°05'0 0.0
2018-Jun-22 15:30N 40°41' W 074°05'0 0.0
2018-Jun-22 15:00N 40°41' W 074°05'0 0.0
2018-Jun-22 14:30N 40°41' W 074°05'0 0.0
2018-Jun-22 14:00N 40°41' W 074°05'0 0.0
2018-Jun-22 13:30N 40°41' W 074°05'1 2.3
2018-Jun-22 13:00N 40°40' W 074°04'2 4.6
2018-Jun-22 12:30N 40°40' W 074°01'3 6.4
2018-Jun-22 12:00N 40°41' W 074°04'0 0.4
2018-Jun-22 11:30N 40°41' W 074°05'0 0.0
2018-Jun-22 11:00N 40°41' W 074°05'0 0.0
2018-Jun-22 10:30N 40°41' W 074°05'0 0.0
2018-Jun-22 10:00N 40°41' W 074°05'0 0.0
2018-Jun-22 09:30N 40°41' W 074°05'0 0.0
2018-Jun-22 09:00N 40°41' W 074°05'0 0.0
2018-Jun-22 08:30N 40°41' W 074°05'0 0.0
2018-Jun-22 08:00N 40°41' W 074°05'0 0.0
2018-Jun-22 07:30N 40°41' W 074°05'0 0.0
2018-Jun-22 07:00N 40°41' W 074°05'0 0.0
2018-Jun-22 06:30N 40°41' W 074°05'0 0.0
2018-Jun-22 06:00N 40°41' W 074°05'0 0.0
2018-Jun-22 05:30N 40°41' W 074°05'0 0.0
2018-Jun-22 05:00N 40°41' W 074°05'0 0.0
2018-Jun-22 04:30N 40°41' W 074°05'0 0.0
2018-Jun-22 04:00N 40°41' W 074°05'0 0.0
2018-Jun-22 03:30N 40°41' W 074°05'0 0.0
2018-Jun-22 03:00N 40°41' W 074°05'0 0.0
2018-Jun-22 02:30N 40°41' W 074°05'0 0.0
2018-Jun-22 02:00N 40°41' W 074°05'0 0.0
2018-Jun-22 01:30N 40°41' W 074°05'0 0.0
2018-Jun-22 01:00N 40°41' W 074°05'0 0.0
2018-Jun-22 00:30N 40°41' W 074°05'0 0.0
2018-Jun-22 00:00N 40°41' W 074°05'0 0.0
2018-Jun-21 23:30N 40°41' W 074°05'0 0.0
2018-Jun-21 23:00N 40°41' W 074°05'0 0.0
2018-Jun-21 22:30N 40°41' W 074°05'0 0.0
2018-Jun-21 22:00N 40°41' W 074°05'0 0.0
2018-Jun-21 21:30N 40°41' W 074°05'0 0.0
2018-Jun-21 21:00N 40°41' W 074°05'0 0.0
2018-Jun-21 20:30N 40°41' W 074°05'0 0.0
2018-Jun-21 20:00N 40°41' W 074°05'0 0.0
2018-Jun-21 19:30N 40°41' W 074°05'0 0.0
2018-Jun-21 19:00N 40°41' W 074°05'0 0.0
2018-Jun-21 18:30N 40°41' W 074°05'0 0.0
2018-Jun-21 18:00N 40°41' W 074°05'0 0.0
2018-Jun-21 17:30N 40°41' W 074°05'0 0.0
2018-Jun-21 17:00N 40°41' W 074°05'0 0.0
2018-Jun-21 16:29N 40°41' W 074°05'0 0.0
2018-Jun-21 16:00N 40°41' W 074°05'0 0.0
2018-Jun-21 15:30N 40°41' W 074°05'0 0.0
2018-Jun-21 15:00N 40°41' W 074°05'0 0.0
2018-Jun-21 14:30N 40°41' W 074°05'0 0.0
2018-Jun-21 14:00N 40°41' W 074°05'0 0.0
2018-Jun-21 13:30N 40°41' W 074°05'0 0.0
2018-Jun-21 13:00N 40°41' W 074°05'0 0.0
2018-Jun-21 12:30N 40°41' W 074°05'0 0.0
2018-Jun-21 12:00N 40°41' W 074°05'0 0.0
2018-Jun-21 11:30N 40°41' W 074°05'0 0.0
2018-Jun-21 11:00N 40°41' W 074°05'0 0.0
2018-Jun-21 10:30N 40°41' W 074°05'0 0.0
2018-Jun-21 10:00N 40°41' W 074°05'0 0.0
2018-Jun-21 09:30N 40°41' W 074°05'0 0.0
2018-Jun-21 09:00N 40°41' W 074°05'0 0.0
2018-Jun-21 08:30N 40°41' W 074°05'0 0.0
2018-Jun-21 08:00N 40°41' W 074°05'0 0.0
2018-Jun-21 07:30N 40°41' W 074°05'0 0.0
2018-Jun-21 07:00N 40°41' W 074°05'0 0.0
2018-Jun-21 06:30N 40°41' W 074°05'0 0.0
2018-Jun-21 06:00N 40°41' W 074°05'0 0.0
2018-Jun-21 05:30N 40°41' W 074°05'0 0.0
2018-Jun-21 05:00N 40°41' W 074°05'0 0.0
2018-Jun-21 04:30N 40°41' W 074°05'0 0.0
2018-Jun-21 04:00N 40°41' W 074°05'0 0.0
2018-Jun-21 03:30N 40°41' W 074°05'0 0.0
2018-Jun-21 03:00N 40°41' W 074°05'0 0.0
2018-Jun-21 02:30N 40°41' W 074°05'0 0.0
2018-Jun-21 02:00N 40°41' W 074°05'0 0.0
2018-Jun-21 01:30N 40°41' W 074°05'0 0.0
2018-Jun-21 01:00N 40°41' W 074°05'0 0.0
2018-Jun-21 00:30N 40°41' W 074°05'0 0.0
2018-Jun-20 23:59N 40°41' W 074°05'0 0.0
2018-Jun-20 23:30N 40°41' W 074°05'0 0.0
2018-Jun-20 23:00N 40°41' W 074°05'0 0.0
2018-Jun-20 22:30N 40°41' W 074°05'0 0.0
2018-Jun-20 22:00N 40°41' W 074°05'0 0.0
2018-Jun-20 21:30N 40°41' W 074°05'0 0.0
2018-Jun-20 21:00N 40°41' W 074°05'1 1.6
2018-Jun-20 20:30N 40°41' W 074°04'3 5.1
2018-Jun-20 19:59N 40°40' W 074°01'2 4.5
2018-Jun-20 19:30N 40°42' W 074°00'2 4.6
2018-Jun-20 18:59N 40°44' W 073°58'1 2.5
2018-Jun-20 18:28N 40°44' W 073°57'1 2.5
2018-Jun-20 18:00N 40°44' W 073°58'4 8.6
2018-Jun-20 17:30N 40°41' W 074°02'2 3.9
2018-Jun-20 17:00N 40°41' W 074°05'0 0.1
2018-Jun-20 16:30N 40°41' W 074°05'0 0.0
2018-Jun-20 16:00N 40°41' W 074°05'0 0.0
2018-Jun-20 15:30N 40°41' W 074°05'0 0.0
2018-Jun-20 15:00N 40°41' W 074°05'0 0.0
2018-Jun-20 14:30N 40°41' W 074°05'0 0.0
2018-Jun-20 14:00N 40°41' W 074°05'0 0.0
2018-Jun-20 13:29N 40°41' W 074°05'0 0.0
2018-Jun-20 12:56N 40°41' W 074°05'0 0.0
2018-Jun-20 12:30N 40°41' W 074°05'0 0.0
2018-Jun-20 12:00N 40°41' W 074°05'0 0.0
2018-Jun-20 11:27N 40°41' W 074°05'0 0.0
2018-Jun-20 10:58N 40°41' W 074°05'0 0.0
2018-Jun-20 10:30N 40°41' W 074°05'0 0.0
2018-Jun-20 10:00N 40°41' W 074°05'0 0.0
2018-Jun-20 09:30N 40°41' W 074°05'0 0.0
2018-Jun-20 09:00N 40°41' W 074°05'0 0.0
2018-Jun-20 08:30N 40°41' W 074°05'0 0.0
2018-Jun-20 08:00N 40°41' W 074°05'0 0.0
2018-Jun-20 07:30N 40°41' W 074°05'0 0.0
2018-Jun-20 07:00N 40°41' W 074°05'0 0.0
2018-Jun-20 06:30N 40°41' W 074°05'0 0.0
2018-Jun-20 06:00N 40°41' W 074°05'0 0.0
2018-Jun-20 05:30N 40°41' W 074°05'0 0.0
2018-Jun-20 05:00N 40°41' W 074°05'0 0.0
2018-Jun-20 04:30N 40°41' W 074°05'0 0.0
2018-Jun-20 03:54N 40°41' W 074°05'0 0.0
2018-Jun-20 03:30N 40°41' W 074°05'0 0.0
2018-Jun-20 03:00N 40°41' W 074°05'0 0.0
2018-Jun-20 02:30N 40°41' W 074°05'0 0.0
2018-Jun-20 02:00N 40°41' W 074°05'0 0.0
2018-Jun-20 01:27N 40°41' W 074°05'0 0.0
2018-Jun-20 01:00N 40°41' W 074°05'0 0.0
2018-Jun-20 00:28N 40°41' W 074°05'0 0.0
2018-Jun-20 00:00N 40°41' W 074°05'0 0.0
2018-Jun-19 23:30N 40°41' W 074°05'0 0.0
2018-Jun-19 23:00N 40°41' W 074°05'0 0.0
2018-Jun-19 22:30N 40°41' W 074°05'0 0.0
2018-Jun-19 22:00N 40°41' W 074°05'0 0.0
2018-Jun-19 21:30N 40°41' W 074°05'1 2.3
2018-Jun-19 21:00N 40°40' W 074°03'4 8.3
2018-Jun-19 20:30N 40°43' W 073°59'2 4.1
2018-Jun-19 19:59N 40°44' W 073°57'0 0.8
2018-Jun-19 19:28N 40°44' W 073°58'3 7.3
2018-Jun-19 19:00N 40°42' W 074°00'2 4.2
2018-Jun-19 18:30N 40°40' W 074°01'3 5.9
2018-Jun-19 18:00N 40°41' W 074°05'0 0.0
2018-Jun-19 17:30N 40°41' W 074°05'0 0.0
2018-Jun-19 17:00N 40°41' W 074°05'0 0.0
2018-Jun-19 16:30N 40°41' W 074°05'0 0.4
2018-Jun-19 16:00N 40°41' W 074°04'2 4.1
2018-Jun-19 15:30N 40°39' W 074°05'3 5.3
2018-Jun-19 15:00N 40°39' W 074°09'2 4.0
2018-Jun-19 14:23N 40°42' W 074°09'3 6.1
2018-Jun-19 13:58N 40°39' W 074°09'3 6.2
2018-Jun-19 13:30N 40°39' W 074°05'3 5.8
2018-Jun-19 13:00N 40°37' W 074°03'8 5.2
2018-Jun-19 11:27N 40°35' W 073°52'7 4.1
2018-Jun-19 09:43N 40°36' W 074°02'210.3
2018-Jun-19 09:30N 40°38' W 074°03'2 4.6
2018-Jun-19 09:00N 40°40' W 074°01'3 6.4
2018-Jun-19 08:30N 40°43' W 073°59'5 2.2
2018-Jun-19 06:09N 40°47' W 073°55'2 9.5
2018-Jun-19 05:58N 40°46' W 073°57'4 8.7
2018-Jun-19 05:30N 40°42' W 073°59'4 7.5
2018-Jun-19 05:00N 40°41' W 074°04'1 1.5
2018-Jun-19 04:30N 40°41' W 074°04'0 0.3
2018-Jun-19 03:59N 40°41' W 074°05'0 0.0
2018-Jun-19 03:30N 40°41' W 074°05'0 0.0
2018-Jun-19 03:00N 40°41' W 074°05'0 0.0
2018-Jun-19 02:30N 40°41' W 074°05'0 0.0
2018-Jun-19 01:59N 40°41' W 074°05'0 0.0
2018-Jun-19 01:30N 40°41' W 074°05'0 0.0
2018-Jun-19 01:00N 40°41' W 074°05'0 0.0
2018-Jun-19 00:22N 40°41' W 074°05'0 0.0
2018-Jun-19 00:00N 40°41' W 074°05'0 0.0
2018-Jun-18 23:30N 40°41' W 074°05'3 6.0
2018-Jun-18 23:00N 40°40' W 074°01'1 2.2
2018-Jun-18 22:30N 40°41' W 074°01'4 8.5
2018-Jun-18 22:00N 40°44' W 073°58'0 0.5
2018-Jun-18 21:30N 40°44' W 073°57'2 4.4
2018-Jun-18 21:01N 40°43' W 073°59'2 4.8
2018-Jun-18 20:30N 40°41' W 074°01'2 4.8
2018-Jun-18 20:00N 40°41' W 074°05'0 0.3
2018-Jun-18 19:30N 40°41' W 074°05'0 0.0
2018-Jun-18 19:00N 40°41' W 074°05'0 0.0
2018-Jun-18 18:30N 40°41' W 074°05'0 0.0
2018-Jun-18 18:00N 40°41' W 074°05'0 0.0
2018-Jun-18 17:30N 40°41' W 074°05'0 0.0
2018-Jun-18 17:00N 40°41' W 074°05'0 0.0
2018-Jun-18 16:30N 40°41' W 074°05'0 0.0
2018-Jun-18 16:00N 40°41' W 074°05'0 0.0
2018-Jun-18 15:30N 40°41' W 074°05'0 0.0
2018-Jun-18 15:00N 40°41' W 074°05'0 0.0
2018-Jun-18 14:30N 40°41' W 074°05'0 0.0
2018-Jun-18 14:00N 40°41' W 074°05'0 0.0
2018-Jun-18 13:30N 40°41' W 074°05'0 0.0
2018-Jun-18 13:00N 40°41' W 074°05'0 0.0
2018-Jun-18 12:30N 40°41' W 074°05'0 0.0
2018-Jun-18 12:00N 40°41' W 074°05'0 0.0
2018-Jun-18 11:30N 40°41' W 074°05'0 0.0
2018-Jun-18 10:51N 40°41' W 074°05'0 0.0
2018-Jun-18 10:30N 40°41' W 074°05'0 0.0
2018-Jun-18 10:00N 40°41' W 074°05'0 0.0
2018-Jun-18 09:30N 40°41' W 074°05'0 0.0
2018-Jun-18 09:00N 40°41' W 074°05'0 0.0
2018-Jun-18 08:30N 40°41' W 074°05'0 0.0
2018-Jun-18 08:00N 40°41' W 074°05'0 0.0
2018-Jun-18 07:30N 40°41' W 074°05'0 0.0
2018-Jun-18 07:00N 40°41' W 074°05'0 0.0
2018-Jun-18 06:30N 40°41' W 074°05'0 0.0
2018-Jun-18 06:00N 40°41' W 074°05'0 0.0
2018-Jun-18 05:30N 40°41' W 074°05'0 0.0
2018-Jun-18 05:00N 40°41' W 074°05'0 0.0
2018-Jun-18 04:30N 40°41' W 074°05'0 0.1
2018-Jun-18 04:00N 40°41' W 074°05'1 2.9
2018-Jun-18 03:30N 40°40' W 074°04'3 6.6
2018-Jun-18 03:00N 40°39' W 074°08'2 0.9
2018-Jun-18 01:13N 40°39' W 074°10'2 8.2
2018-Jun-18 01:00N 40°39' W 074°08'4 7.1
2018-Jun-18 00:30N 40°41' W 074°04'1 1.7
2018-Jun-18 00:00N 40°41' W 074°05'0 0.2
2018-Jun-17 23:29N 40°41' W 074°05'0 0.0
2018-Jun-17 23:00N 40°41' W 074°05'0 0.0
2018-Jun-17 22:30N 40°41' W 074°05'0 0.0
2018-Jun-17 22:00N 40°41' W 074°05'0 0.0
2018-Jun-17 21:30N 40°41' W 074°05'0 0.0
2018-Jun-17 21:00N 40°41' W 074°05'0 0.0
2018-Jun-17 20:30N 40°41' W 074°05'0 0.0
2018-Jun-17 20:00N 40°41' W 074°05'0 0.0
2018-Jun-17 19:29N 40°41' W 074°05'0 0.0
2018-Jun-17 19:00N 40°41' W 074°05'0 0.0
2018-Jun-17 18:30N 40°41' W 074°05'0 0.0
2018-Jun-17 17:57N 40°41' W 074°05'0 0.0
2018-Jun-17 17:26N 40°41' W 074°05'0 0.0
2018-Jun-17 17:00N 40°41' W 074°05'0 0.0
2018-Jun-17 16:29N 40°41' W 074°05'0 0.0
2018-Jun-17 16:00N 40°41' W 074°05'0 0.0
2018-Jun-17 15:30N 40°41' W 074°05'0 0.0
2018-Jun-17 15:00N 40°41' W 074°05'0 0.0
2018-Jun-17 14:30N 40°41' W 074°05'0 0.0
2018-Jun-17 14:00N 40°41' W 074°05'0 0.0
2018-Jun-17 13:30N 40°41' W 074°05'0 0.0
2018-Jun-17 13:00N 40°41' W 074°05'0 0.0
2018-Jun-17 12:30N 40°41' W 074°05'0 0.0
2018-Jun-17 12:00N 40°41' W 074°05'0 0.0
2018-Jun-17 11:30N 40°41' W 074°05'0 0.0
2018-Jun-17 11:00N 40°41' W 074°05'0 0.0
2018-Jun-17 10:30N 40°41' W 074°05'0 0.0
2018-Jun-17 10:00N 40°41' W 074°05'0 0.0
2018-Jun-17 09:30N 40°41' W 074°05'0 0.0
2018-Jun-17 09:00N 40°41' W 074°05'0 0.0
2018-Jun-17 08:30N 40°41' W 074°05'0 0.0
2018-Jun-17 08:00N 40°41' W 074°05'0 0.0
2018-Jun-17 07:30N 40°41' W 074°05'0 0.0
2018-Jun-17 07:00N 40°41' W 074°05'0 0.0
2018-Jun-17 06:30N 40°41' W 074°05'0 0.0
2018-Jun-17 06:00N 40°41' W 074°05'0 0.0
2018-Jun-17 05:30N 40°41' W 074°05'0 0.0
2018-Jun-17 05:00N 40°41' W 074°05'0 0.0
2018-Jun-17 04:30N 40°41' W 074°05'0 0.0
2018-Jun-17 04:00N 40°41' W 074°05'0 0.3
2018-Jun-17 03:30N 40°41' W 074°04'1 2.4
2018-Jun-17 03:00N 40°41' W 074°03'3 5.5
2018-Jun-17 02:30N 40°42' W 073°60'2 4.0
2018-Jun-17 02:00N 40°44' W 073°58'1 2.1
2018-Jun-17 01:27N 40°44' W 073°57'3 7.1
2018-Jun-17 01:00N 40°42' W 073°60'3 5.1
2018-Jun-17 00:30N 40°40' W 074°01'3 6.8
2018-Jun-17 00:00N 40°41' W 074°05'0 0.0
2018-Jun-16 23:30N 40°41' W 074°05'0 0.0
2018-Jun-16 23:00N 40°41' W 074°05'0 0.0
2018-Jun-16 22:30N 40°41' W 074°05'0 0.0
2018-Jun-16 22:00N 40°41' W 074°05'0 0.0
2018-Jun-16 21:30N 40°41' W 074°05'0 0.0
2018-Jun-16 21:00N 40°41' W 074°05'0 0.0
2018-Jun-16 20:30N 40°41' W 074°05'0 0.0
2018-Jun-16 20:00N 40°41' W 074°05'0 0.3
2018-Jun-16 19:30N 40°41' W 074°05'0 0.3
2018-Jun-16 19:00N 40°41' W 074°05'0 0.0
2018-Jun-16 18:30N 40°41' W 074°05'0 0.0
2018-Jun-16 18:00N 40°41' W 074°05'0 0.0
2018-Jun-16 17:30N 40°41' W 074°05'0 0.0
2018-Jun-16 17:00N 40°41' W 074°05'0 0.0
2018-Jun-16 16:30N 40°41' W 074°05'0 0.0
2018-Jun-16 16:00N 40°41' W 074°05'0 0.0
2018-Jun-16 15:30N 40°41' W 074°05'0 0.0
2018-Jun-16 15:00N 40°41' W 074°05'0 0.0
2018-Jun-16 14:30N 40°41' W 074°05'0 0.0
2018-Jun-16 13:59N 40°41' W 074°05'0 0.0
2018-Jun-16 13:30N 40°41' W 074°05'0 0.0
2018-Jun-16 13:00N 40°41' W 074°05'0 0.0
2018-Jun-16 12:30N 40°41' W 074°05'0 0.0
2018-Jun-16 12:00N 40°41' W 074°05'0 0.0
2018-Jun-16 11:30N 40°41' W 074°05'0 0.0
2018-Jun-16 11:00N 40°41' W 074°05'0 0.0
2018-Jun-16 10:30N 40°41' W 074°05'0 0.0
2018-Jun-16 10:00N 40°41' W 074°05'0 0.0
2018-Jun-16 09:30N 40°41' W 074°05'0 0.0
2018-Jun-16 09:00N 40°41' W 074°05'0 0.0
2018-Jun-16 08:30N 40°41' W 074°05'0 0.0
2018-Jun-16 08:00N 40°41' W 074°05'0 0.0
2018-Jun-16 07:30N 40°41' W 074°05'0 0.0
2018-Jun-16 07:00N 40°41' W 074°05'0 0.1
2018-Jun-16 06:30N 40°41' W 074°05'2 3.3
2018-Jun-16 06:00N 40°41' W 074°02'4 8.6
2018-Jun-16 05:30N 40°44' W 073°58'4 1.7
2018-Jun-16 03:14N 40°47' W 073°55'2 9.3
2018-Jun-16 03:00N 40°46' W 073°57'4 8.8
2018-Jun-16 02:30N 40°42' W 074°00'2 4.5
2018-Jun-16 02:00N 40°40' W 074°01'0 0.0
2018-Jun-16 01:30N 40°40' W 074°01'0 0.0
2018-Jun-16 01:00N 40°40' W 074°01'0 0.0
2018-Jun-16 00:30N 40°40' W 074°01'1 1.9
2018-Jun-16 00:00N 40°41' W 074°01'2 4.6
2018-Jun-15 23:30N 40°42' W 073°59'2 4.8
2018-Jun-15 22:59N 40°44' W 073°57'0 0.5
2018-Jun-15 22:30N 40°44' W 073°57'3 6.6
2018-Jun-15 22:00N 40°42' W 074°00'3 6.0
2018-Jun-15 21:30N 40°40' W 074°03'1 2.3
2018-Jun-15 21:00N 40°41' W 074°04'0 0.3
2018-Jun-15 20:30N 40°41' W 074°05'0 0.0
2018-Jun-15 20:00N 40°41' W 074°05'0 0.0
2018-Jun-15 19:30N 40°41' W 074°05'0 0.0
2018-Jun-15 19:00N 40°41' W 074°05'0 0.0
2018-Jun-15 18:30N 40°41' W 074°05'0 0.0
2018-Jun-15 18:00N 40°41' W 074°05'0 0.0
2018-Jun-15 17:30N 40°41' W 074°05'0 0.0
2018-Jun-15 17:00N 40°41' W 074°05'0 0.0
2018-Jun-15 16:30N 40°41' W 074°05'0 0.0
2018-Jun-15 16:00N 40°41' W 074°05'0 0.0
2018-Jun-15 15:30N 40°41' W 074°05'  

Dump ship's entire track history